Terminal Aerodrome Forecast
Issued by NWS Albany, NY

Current Version | Previous Version | Text Only | Print | Product List | Glossary On
Versions: 1 2 3 4 5 6 7 8 9 10 11 12 13 14 15 16 17 18 19 20 21 22 23 24 25 26 27 28 29 30 31 32 33
580
FTUS41 KALY 241122
TAFGFL
TAF
KGFL 241122Z 2412/2512 01010KT 6SM -RAPL BR FEW020 OVC040
     FM241700 36008KT 5SM -RAPL BR BKN020 OVC030
     FM242100 36005KT 2SM -SNPL BR BKN009 OVC015
     FM250500 32005KT P6SM VCSH BKN035 OVC050=

USA.gov is the U.S. government's official web portal to all federal, state and local government web resources and services.